createdAt,value
2017-05-14T00:01:18.496Z,14.10
2017-05-14T00:03:47.375Z,14.10
2017-05-14T00:06:16.400Z,14.10
2017-05-14T00:08:45.474Z,14.00
2017-05-14T00:11:14.369Z,14.00
2017-05-14T00:13:43.405Z,14.00
2017-05-14T00:16:12.280Z,13.90
2017-05-14T00:18:42.052Z,13.80
2017-05-14T00:21:11.010Z,13.80
2017-05-14T00:23:40.038Z,13.90
2017-05-14T00:26:09.069Z,13.90
2017-05-14T00:28:38.705Z,13.90
2017-05-14T00:31:07.657Z,13.90
2017-05-14T00:33:36.757Z,13.90
2017-05-14T00:36:05.633Z,13.90
2017-05-14T00:38:34.602Z,13.90
2017-05-14T00:41:03.734Z,13.80
2017-05-14T00:43:32.609Z,13.90
2017-05-14T00:46:01.552Z,13.80
2017-05-14T00:48:30.473Z,13.80
2017-05-14T00:50:59.464Z,13.70
2017-05-14T00:53:28.341Z,13.70
2017-05-14T00:55:57.286Z,13.60
2017-05-14T00:58:26.249Z,13.50
2017-05-14T01:00:55.145Z,13.50
2017-05-14T01:03:24.157Z,13.50
2017-05-14T01:05:53.872Z,13.50
2017-05-14T01:08:23.869Z,13.50
2017-05-14T01:10:52.799Z,13.60
2017-05-14T01:13:21.829Z,13.60
2017-05-14T01:15:51.000Z,13.60
2017-05-14T01:18:19.920Z,13.50
2017-05-14T01:20:48.898Z,13.50
2017-05-14T01:23:18.162Z,13.40
2017-05-14T01:25:47.100Z,13.40
2017-05-14T01:28:16.057Z,13.40
2017-05-14T01:30:45.841Z,13.30
2017-05-14T01:33:14.999Z,13.30
2017-05-14T01:35:43.886Z,13.30
2017-05-14T01:38:12.770Z,13.30
2017-05-14T01:40:41.685Z,13.20
2017-05-14T01:43:10.647Z,13.20
2017-05-14T01:45:39.562Z,13.10
2017-05-14T01:48:08.566Z,13.00
2017-05-14T01:50:37.606Z,13.00
2017-05-14T01:53:06.505Z,13.00
2017-05-14T01:55:35.422Z,13.00
2017-05-14T01:58:04.606Z,12.90
2017-05-14T02:00:33.538Z,12.90
2017-05-14T02:03:02.504Z,12.90
2017-05-14T02:05:31.465Z,12.90
2017-05-14T02:08:00.441Z,13.00
2017-05-14T02:10:30.172Z,13.00
2017-05-14T02:12:59.078Z,13.00
2017-05-14T02:15:27.995Z,13.00
2017-05-14T02:17:59.851Z,13.00
2017-05-14T02:20:28.721Z,13.00
2017-05-14T02:22:57.795Z,13.00
2017-05-14T02:25:26.733Z,12.90
2017-05-14T02:27:55.671Z,12.90
2017-05-14T02:30:25.529Z,13.00
2017-05-14T02:32:54.429Z,13.00
2017-05-14T02:35:23.310Z,12.90
2017-05-14T02:37:52.208Z,12.80
2017-05-14T02:40:21.215Z,12.80
2017-05-14T02:42:50.189Z,12.70
2017-05-14T02:45:19.103Z,12.60
2017-05-14T02:47:48.162Z,12.70
2017-05-14T02:50:17.081Z,12.70
2017-05-14T02:52:45.959Z,12.70
2017-05-14T02:55:15.043Z,12.60
2017-05-14T02:57:43.905Z,12.70
2017-05-14T03:00:13.028Z,12.70
2017-05-14T03:02:42.010Z,12.70
2017-05-14T03:05:10.885Z,12.80
2017-05-14T03:07:39.765Z,12.80
2017-05-14T03:10:08.778Z,12.80
2017-05-14T03:12:37.726Z,12.70
2017-05-14T03:15:06.621Z,12.70
2017-05-14T03:17:36.317Z,12.70
2017-05-14T03:20:05.218Z,12.70
2017-05-14T03:22:34.181Z,12.60
2017-05-14T03:25:03.122Z,12.60
2017-05-14T03:27:32.840Z,12.70
2017-05-14T03:30:01.725Z,12.70
2017-05-14T03:32:31.397Z,12.60
2017-05-14T03:35:00.281Z,12.60
2017-05-14T03:37:29.171Z,12.60
2017-05-14T03:39:58.202Z,12.60
2017-05-14T03:42:27.903Z,12.50
2017-05-14T03:44:56.775Z,12.50
2017-05-14T03:47:25.753Z,12.50
2017-05-14T03:49:54.640Z,12.50
2017-05-14T03:52:23.562Z,12.50
2017-05-14T03:54:53.225Z,12.50
2017-05-14T03:57:22.113Z,12.50
2017-05-14T03:59:51.010Z,12.50
2017-05-14T04:02:20.214Z,12.60
2017-05-14T04:04:49.190Z,12.50
2017-05-14T04:07:18.072Z,12.50
2017-05-14T04:09:47.216Z,12.50
2017-05-14T04:12:16.105Z,12.60
2017-05-14T04:14:44.988Z,12.60
2017-05-14T04:17:14.154Z,12.80
2017-05-14T04:19:43.030Z,12.80
2017-05-14T04:22:11.908Z,12.90
2017-05-14T04:24:40.833Z,12.90
2017-05-14T04:27:09.717Z,12.90
2017-05-14T04:29:38.641Z,13.00
2017-05-14T04:32:07.525Z,13.10
2017-05-14T04:34:36.419Z,13.10
2017-05-14T04:37:05.309Z,13.20
2017-05-14T04:39:34.317Z,13.20
2017-05-14T04:42:03.205Z,13.30
2017-05-14T04:44:32.082Z,13.30
2017-05-14T04:47:01.285Z,13.40
2017-05-14T04:49:30.224Z,13.50
2017-05-14T04:51:59.105Z,13.50
2017-05-14T04:54:28.964Z,13.60
2017-05-14T04:56:57.845Z,13.80
2017-05-14T04:59:26.721Z,13.90
2017-05-14T05:01:55.720Z,14.00
2017-05-14T05:04:24.595Z,14.10
2017-05-14T05:06:53.489Z,14.20
2017-05-14T05:09:22.450Z,14.30
2017-05-14T05:11:51.337Z,14.40
2017-05-14T05:14:20.213Z,14.60
2017-05-14T05:16:49.477Z,14.80
2017-05-14T05:19:18.426Z,15.00
2017-05-14T05:21:47.385Z,15.00
2017-05-14T05:24:16.359Z,15.00
2017-05-14T05:26:45.232Z,15.00
2017-05-14T05:29:14.109Z,15.00
2017-05-14T05:31:43.031Z,15.10
2017-05-14T05:34:12.049Z,15.20
2017-05-14T05:36:40.933Z,15.20
2017-05-14T05:39:09.832Z,15.30
2017-05-14T05:41:38.714Z,15.40
2017-05-14T05:44:07.706Z,15.40
2017-05-14T05:46:36.666Z,15.50
2017-05-14T05:49:05.601Z,15.50
2017-05-14T05:51:34.576Z,15.50
2017-05-14T05:54:03.452Z,15.60
2017-05-14T05:56:32.324Z,15.70
2017-05-14T05:59:01.394Z,15.70
2017-05-14T06:01:31.076Z,15.80
2017-05-14T06:04:00.383Z,15.80
2017-05-14T06:06:30.165Z,15.90
2017-05-14T06:08:59.143Z,16.00
2017-05-14T06:11:28.371Z,16.00
2017-05-14T06:13:57.897Z,16.10
2017-05-14T06:16:27.360Z,16.10
2017-05-14T06:18:56.563Z,16.20
2017-05-14T06:21:26.350Z,16.30
2017-05-14T06:23:55.871Z,16.40
2017-05-14T06:26:24.806Z,16.40
2017-05-14T06:28:54.365Z,16.40
2017-05-14T06:31:24.401Z,16.50
2017-05-14T06:33:53.720Z,16.60
2017-05-14T06:36:23.089Z,16.70
2017-05-14T06:38:52.139Z,16.80
2017-05-14T06:41:21.457Z,16.90
2017-05-14T06:43:51.217Z,17.00
2017-05-14T06:46:20.749Z,17.00
2017-05-14T06:48:49.734Z,17.10
2017-05-14T06:51:18.993Z,17.20
2017-05-14T06:53:47.996Z,17.20
2017-05-14T06:56:17.430Z,17.40
2017-05-14T06:58:46.596Z,17.40
2017-05-14T07:01:16.063Z,17.40
2017-05-14T07:03:45.469Z,17.40
2017-05-14T07:06:14.430Z,17.50
2017-05-14T07:08:43.734Z,17.50
2017-05-14T07:11:12.642Z,17.60
2017-05-14T07:13:41.857Z,17.70
2017-05-14T07:16:11.338Z,17.70
2017-05-14T07:18:41.548Z,17.90
2017-05-14T07:21:10.809Z,18.00
2017-05-14T07:23:40.241Z,18.20
2017-05-14T07:26:09.454Z,18.30
2017-05-14T07:28:38.357Z,18.40
2017-05-14T07:31:07.647Z,18.60
2017-05-14T07:33:36.595Z,18.70
2017-05-14T07:36:05.930Z,18.80
2017-05-14T07:38:35.216Z,18.90
2017-05-14T07:41:04.519Z,18.90
2017-05-14T07:43:33.805Z,19.00
2017-05-14T07:46:02.737Z,19.20
2017-05-14T07:48:31.889Z,19.30
2017-05-14T07:51:01.117Z,19.40
2017-05-14T07:53:30.403Z,19.60
2017-05-14T07:55:59.615Z,19.60
2017-05-14T07:58:28.928Z,19.60
2017-05-14T08:00:58.153Z,19.70
2017-05-14T08:03:27.029Z,19.80
2017-05-14T08:05:56.733Z,19.90
2017-05-14T08:08:25.981Z,20.00
2017-05-14T08:10:54.910Z,20.00
2017-05-14T08:13:24.180Z,20.20
2017-05-14T08:15:53.087Z,20.30
2017-05-14T08:18:22.490Z,20.40
2017-05-14T08:20:51.703Z,20.40
2017-05-14T08:23:20.888Z,20.50
2017-05-14T08:25:50.786Z,20.70
2017-05-14T08:28:19.999Z,20.80
2017-05-14T08:30:49.169Z,20.80
2017-05-14T08:33:18.134Z,21.00
2017-05-14T08:35:47.373Z,21.00
2017-05-14T08:38:16.281Z,21.00
2017-05-14T08:40:45.786Z,21.10
2017-05-14T08:43:15.079Z,21.10
2017-05-14T08:45:44.298Z,21.20
2017-05-14T08:48:13.570Z,21.30
2017-05-14T08:50:42.496Z,21.50
2017-05-14T08:53:11.711Z,21.60
2017-05-14T08:55:40.670Z,21.60
2017-05-14T08:58:09.859Z,21.70
2017-05-14T09:00:39.138Z,21.80
2017-05-14T09:03:08.106Z,21.90
2017-05-14T09:05:37.353Z,22.10
2017-05-14T09:08:06.276Z,22.10
2017-05-14T09:10:35.512Z,22.10
2017-05-14T09:13:04.444Z,22.30
2017-05-14T09:15:33.677Z,22.20
2017-05-14T09:18:02.591Z,22.30
2017-05-14T09:20:31.997Z,22.20
2017-05-14T09:23:00.914Z,22.30
2017-05-14T09:25:30.086Z,22.30
2017-05-14T09:27:59.025Z,22.40
2017-05-14T09:30:28.517Z,22.60
2017-05-14T09:32:58.607Z,22.60
2017-05-14T09:35:27.809Z,22.60
2017-05-14T09:37:57.035Z,22.70
2017-05-14T09:40:26.285Z,22.90
2017-05-14T09:42:55.193Z,22.90
2017-05-14T09:45:25.503Z,23.00
2017-05-14T09:47:54.416Z,23.10
2017-05-14T09:50:23.554Z,23.10
2017-05-14T09:52:53.411Z,23.20
2017-05-14T09:55:22.774Z,23.20
2017-05-14T09:57:52.424Z,23.30
2017-05-14T10:00:21.724Z,23.40
2017-05-14T10:02:50.659Z,23.50
2017-05-14T10:05:20.216Z,23.60
2017-05-14T10:07:49.322Z,23.70
2017-05-14T10:10:18.237Z,23.90
2017-05-14T10:12:47.586Z,24.10
2017-05-14T10:15:16.545Z,24.20
2017-05-14T10:17:45.721Z,24.40
2017-05-14T10:20:14.692Z,24.40
2017-05-14T10:22:44.196Z,24.60
2017-05-14T10:25:13.604Z,24.80
2017-05-14T10:27:42.563Z,25.10
2017-05-14T10:30:11.861Z,25.50
2017-05-14T10:32:40.813Z,25.80
2017-05-14T10:35:10.440Z,25.70
2017-05-14T10:37:39.569Z,25.60
2017-05-14T10:40:08.967Z,25.90
2017-05-14T10:42:37.925Z,25.90
2017-05-14T10:45:07.123Z,25.90
2017-05-14T10:47:36.490Z,25.60
2017-05-14T10:50:06.313Z,25.60
2017-05-14T10:52:35.549Z,25.30
2017-05-14T10:55:05.250Z,24.90
2017-05-14T10:57:34.503Z,24.70
2017-05-14T11:00:03.459Z,24.40
2017-05-14T11:02:32.493Z,23.90
2017-05-14T11:05:01.714Z,23.70
2017-05-14T11:07:31.055Z,23.40
2017-05-14T11:10:00.082Z,23.10
2017-05-14T11:12:29.034Z,22.60
2017-05-14T11:14:58.334Z,22.50
2017-05-14T11:17:27.983Z,22.40
2017-05-14T11:19:57.387Z,22.30
2017-05-14T11:22:26.299Z,22.40
2017-05-14T11:24:55.461Z,22.50
2017-05-14T11:27:24.416Z,22.90
2017-05-14T11:29:53.675Z,23.50
2017-05-14T11:32:22.869Z,24.20
2017-05-14T11:34:51.924Z,24.70
2017-05-14T11:37:21.394Z,25.10
2017-05-14T11:39:50.319Z,25.40
2017-05-14T11:42:20.285Z,25.90
2017-05-14T11:44:49.209Z,26.20
2017-05-14T11:47:18.420Z,26.50
2017-05-14T11:49:48.112Z,26.50
2017-05-14T11:52:17.447Z,26.50
2017-05-14T11:54:46.353Z,26.30
2017-05-14T11:57:15.321Z,26.50
2017-05-14T11:59:44.728Z,26.70
2017-05-14T12:02:13.606Z,27.00
2017-05-14T12:04:43.361Z,27.40
2017-05-14T12:07:12.278Z,27.50
2017-05-14T12:09:41.157Z,27.70
2017-05-14T12:12:10.184Z,28.30
2017-05-14T12:14:39.804Z,28.60
2017-05-14T12:17:08.925Z,28.60
2017-05-14T12:19:37.801Z,28.80
2017-05-14T12:22:06.687Z,29.20
2017-05-14T12:24:36.346Z,30.00
2017-05-14T12:27:05.221Z,30.80
2017-05-14T12:29:34.104Z,31.50
2017-05-14T12:32:03.182Z,32.00
2017-05-14T12:34:32.060Z,32.00
2017-05-14T12:37:00.940Z,31.60
2017-05-14T12:39:30.585Z,31.70
2017-05-14T12:41:59.468Z,32.50
2017-05-14T12:44:28.345Z,33.90
2017-05-14T12:46:57.261Z,34.40
2017-05-14T12:49:26.145Z,33.30
2017-05-14T12:51:55.012Z,31.70
2017-05-14T12:54:23.926Z,30.30
2017-05-14T12:56:52.804Z,28.90
2017-05-14T12:59:21.681Z,28.30
2017-05-14T13:01:51.321Z,28.20
2017-05-14T13:04:20.198Z,28.00
2017-05-14T13:06:49.193Z,27.90
2017-05-14T13:09:18.073Z,27.30
2017-05-14T13:11:46.950Z,26.50
2017-05-14T13:14:15.873Z,25.80
2017-05-14T13:16:44.785Z,25.40
2017-05-14T13:19:13.662Z,24.70
2017-05-14T13:21:42.665Z,24.10
2017-05-14T13:24:12.402Z,23.70
2017-05-14T13:26:41.281Z,23.10
2017-05-14T13:29:10.200Z,22.60
2017-05-14T13:31:39.535Z,22.30
2017-05-14T13:34:08.404Z,22.10
2017-05-14T13:36:37.404Z,22.10
2017-05-14T13:39:06.329Z,22.00
2017-05-14T13:41:35.208Z,21.60
2017-05-14T13:44:04.101Z,21.20
2017-05-14T13:46:32.977Z,20.80
2017-05-14T13:49:01.994Z,20.40
2017-05-14T13:51:30.874Z,19.70
2017-05-14T13:53:59.757Z,19.30
2017-05-14T13:56:28.662Z,19.10
2017-05-14T13:58:57.666Z,19.10
2017-05-14T14:01:26.677Z,18.90
2017-05-14T14:03:55.553Z,18.60
2017-05-14T14:06:24.429Z,18.40
2017-05-14T14:08:53.432Z,18.30
2017-05-14T14:11:22.300Z,18.20
2017-05-14T14:13:51.179Z,18.40
2017-05-14T14:16:20.303Z,18.40
2017-05-14T14:18:49.187Z,18.50
2017-05-14T14:21:18.067Z,18.50
2017-05-14T14:23:46.969Z,18.60
2017-05-14T14:26:15.841Z,18.60
2017-05-14T14:28:44.717Z,18.50
2017-05-14T14:31:13.694Z,18.50
2017-05-14T14:33:43.309Z,18.40
2017-05-14T14:36:12.943Z,18.40
2017-05-14T14:38:41.869Z,18.30
2017-05-14T14:41:10.830Z,18.30
2017-05-14T14:43:39.722Z,18.20
2017-05-14T14:46:08.612Z,18.30
2017-05-14T14:48:37.534Z,18.40
2017-05-14T14:51:06.398Z,18.40
2017-05-14T14:53:35.268Z,18.50
2017-05-14T14:56:04.171Z,18.60
2017-05-14T14:58:33.042Z,18.60
2017-05-14T15:01:01.987Z,18.70
2017-05-14T15:03:30.856Z,18.70
2017-05-14T15:05:59.741Z,18.80
2017-05-14T15:08:28.642Z,18.80
2017-05-14T15:10:57.518Z,19.00
2017-05-14T15:13:26.415Z,19.20
2017-05-14T15:15:55.296Z,19.30
2017-05-14T15:18:24.203Z,19.30
2017-05-14T15:20:53.077Z,19.40
2017-05-14T15:23:21.953Z,19.40
2017-05-14T15:25:51.167Z,19.40
2017-05-14T15:28:20.037Z,19.50
2017-05-14T15:30:49.645Z,19.40
2017-05-14T15:33:18.541Z,19.50
2017-05-14T15:35:47.411Z,19.60
2017-05-14T15:38:17.022Z,19.60
2017-05-14T15:40:46.765Z,19.60
2017-05-14T15:43:15.640Z,19.60
2017-05-14T15:45:44.515Z,19.60
2017-05-14T15:48:14.172Z,19.50
2017-05-14T15:50:43.049Z,19.50
2017-05-14T15:53:11.927Z,19.30
2017-05-14T15:55:40.843Z,19.40
2017-05-14T15:58:09.719Z,19.30
2017-05-14T16:00:38.587Z,19.30
2017-05-14T16:03:07.588Z,19.40
2017-05-14T16:05:36.485Z,19.30
2017-05-14T16:08:05.358Z,19.40
2017-05-14T16:10:35.293Z,19.50
2017-05-14T16:13:04.168Z,19.50
2017-05-14T16:15:33.046Z,19.40
2017-05-14T16:18:02.688Z,19.30
2017-05-14T16:20:31.560Z,19.30
2017-05-14T16:23:00.482Z,19.30
2017-05-14T16:25:29.355Z,19.20
2017-05-14T16:27:58.234Z,19.10
2017-05-14T16:30:27.153Z,19.10
2017-05-14T16:32:57.009Z,19.00
2017-05-14T16:35:26.062Z,18.90
2017-05-14T16:37:54.973Z,18.90
2017-05-14T16:40:23.857Z,18.90
2017-05-14T16:42:52.733Z,18.90
2017-05-14T16:45:21.648Z,18.90
2017-05-14T16:47:50.534Z,18.90
2017-05-14T16:50:19.445Z,18.90
2017-05-14T16:52:48.325Z,18.80
2017-05-14T16:55:17.221Z,18.80
2017-05-14T16:57:46.217Z,18.80
2017-05-14T17:00:15.097Z,18.70
2017-05-14T17:02:43.973Z,18.60
2017-05-14T17:05:12.881Z,18.60
2017-05-14T17:07:41.770Z,18.60
2017-05-14T17:10:10.686Z,18.60
2017-05-14T17:12:40.305Z,18.50
2017-05-14T17:15:10.145Z,18.40
2017-05-14T17:17:39.022Z,18.30
2017-05-14T17:20:07.903Z,18.20
2017-05-14T17:22:36.836Z,18.20
2017-05-14T17:25:05.762Z,18.10
2017-05-14T17:27:34.671Z,18.00
2017-05-14T17:30:04.310Z,17.90
2017-05-14T17:32:33.225Z,17.90
2017-05-14T17:35:02.057Z,17.80
2017-05-14T17:37:31.287Z,17.80
2017-05-14T17:40:00.166Z,17.80
2017-05-14T17:42:29.030Z,17.80
2017-05-14T17:44:58.718Z,17.70
2017-05-14T17:47:27.587Z,17.60
2017-05-14T17:49:56.516Z,17.50
2017-05-14T17:52:26.269Z,17.40
2017-05-14T17:54:55.143Z,17.40
2017-05-14T17:57:24.022Z,17.30
2017-05-14T17:59:52.937Z,17.30
2017-05-14T18:02:21.824Z,17.20
2017-05-14T18:04:50.697Z,17.20
2017-05-14T18:07:19.613Z,17.20
2017-05-14T18:09:48.770Z,17.10
2017-05-14T18:12:18.382Z,17.00
2017-05-14T18:14:48.038Z,17.00
2017-05-14T18:17:16.921Z,16.90
2017-05-14T18:19:45.824Z,16.90
2017-05-14T18:22:14.749Z,16.90
2017-05-14T18:24:44.380Z,16.80
2017-05-14T18:27:13.260Z,16.90
2017-05-14T18:29:42.927Z,16.90
2017-05-14T18:32:11.825Z,16.90
2017-05-14T18:34:40.699Z,16.80
2017-05-14T18:37:09.616Z,16.90
2017-05-14T18:39:38.561Z,16.90
2017-05-14T18:42:07.436Z,16.80
2017-05-14T18:44:36.551Z,16.90
2017-05-14T18:47:05.421Z,16.80
2017-05-14T18:49:34.298Z,16.80
2017-05-14T18:52:03.951Z,16.70
2017-05-14T18:54:32.825Z,16.80
2017-05-14T18:57:01.712Z,16.80
2017-05-14T18:59:30.620Z,16.70
2017-05-14T19:01:59.501Z,16.70
2017-05-14T19:04:28.374Z,16.70
2017-05-14T19:06:57.489Z,16.70
2017-05-14T19:09:26.366Z,16.70
2017-05-14T19:11:55.236Z,16.70
2017-05-14T19:14:24.903Z,16.60
2017-05-14T19:16:53.769Z,16.60
2017-05-14T19:19:22.662Z,16.70
2017-05-14T19:21:51.752Z,16.70
2017-05-14T19:24:20.634Z,16.80
2017-05-14T19:26:49.530Z,16.80
2017-05-14T19:29:19.239Z,16.80
2017-05-14T19:31:48.910Z,16.90
2017-05-14T19:34:17.825Z,16.90
2017-05-14T19:36:46.702Z,16.90
2017-05-14T19:39:16.319Z,16.90
2017-05-14T19:41:45.232Z,16.90
2017-05-14T19:44:14.106Z,16.90
2017-05-14T19:46:42.981Z,16.80
2017-05-14T19:49:12.624Z,16.80
2017-05-14T19:51:41.501Z,16.80
2017-05-14T19:54:10.377Z,16.80
2017-05-14T19:56:39.281Z,16.70
2017-05-14T19:59:08.152Z,16.70
2017-05-14T20:01:37.768Z,16.70
2017-05-14T20:04:06.672Z,16.60
2017-05-14T20:06:35.545Z,16.60
2017-05-14T20:09:04.440Z,16.60
2017-05-14T20:11:34.069Z,16.50
2017-05-14T20:14:02.939Z,16.60
2017-05-14T20:16:31.820Z,16.60
2017-05-14T20:19:02.281Z,16.60
2017-05-14T20:21:31.159Z,16.60
2017-05-14T20:24:00.072Z,16.60
2017-05-14T20:26:28.945Z,16.60
2017-05-14T20:28:57.821Z,16.60
2017-05-14T20:31:27.021Z,16.70
2017-05-14T20:33:55.903Z,16.60
2017-05-14T20:36:25.513Z,16.70
2017-05-14T20:38:54.741Z,16.60
2017-05-14T20:41:23.620Z,16.60
2017-05-14T20:43:52.488Z,16.50
2017-05-14T20:46:22.329Z,16.50
2017-05-14T20:48:51.205Z,16.50
2017-05-14T20:51:20.082Z,16.50
2017-05-14T20:53:49.717Z,16.50
2017-05-14T20:56:18.625Z,16.50
2017-05-14T20:58:47.496Z,16.50
2017-05-14T21:01:16.378Z,16.50
2017-05-14T21:03:45.285Z,16.50
2017-05-14T21:06:14.166Z,16.50
2017-05-14T21:08:43.037Z,16.50
2017-05-14T21:11:12.670Z,16.50
2017-05-14T21:13:41.873Z,16.60
2017-05-14T21:16:10.751Z,16.60
2017-05-14T21:18:39.664Z,16.60
2017-05-14T21:21:08.557Z,16.70
2017-05-14T21:23:37.430Z,16.70
2017-05-14T21:26:06.301Z,16.70
2017-05-14T21:28:35.213Z,16.70
2017-05-14T21:31:04.085Z,16.80
2017-05-14T21:33:32.965Z,16.70
2017-05-14T21:36:02.809Z,16.70
2017-05-14T21:38:31.693Z,16.80
2017-05-14T21:41:00.571Z,16.80
2017-05-14T21:43:29.493Z,16.80
2017-05-14T21:45:58.362Z,16.80
2017-05-14T21:48:27.239Z,16.80
2017-05-14T21:50:56.358Z,16.80
2017-05-14T21:53:25.228Z,16.80
2017-05-14T21:55:54.106Z,16.70
2017-05-14T21:58:24.158Z,16.70
2017-05-14T22:00:53.029Z,16.80
2017-05-14T22:03:21.901Z,16.70
2017-05-14T22:05:51.563Z,16.70
2017-05-14T22:08:20.445Z,16.70
2017-05-14T22:10:49.318Z,16.70
2017-05-14T22:13:18.418Z,16.60
2017-05-14T22:15:47.289Z,16.60
2017-05-14T22:18:16.170Z,16.60
2017-05-14T22:20:45.809Z,16.60
2017-05-14T22:23:14.685Z,16.60
2017-05-14T22:25:43.602Z,16.60
2017-05-14T22:28:12.485Z,16.60
2017-05-14T22:30:41.356Z,16.50
2017-05-14T22:33:10.362Z,16.50
2017-05-14T22:35:39.235Z,16.50
2017-05-14T22:38:08.129Z,16.60
2017-05-14T22:40:37.342Z,16.60
2017-05-14T22:43:06.217Z,16.50
2017-05-14T22:45:35.094Z,16.50
2017-05-14T22:48:04.753Z,16.50
2017-05-14T22:50:33.625Z,16.50
2017-05-14T22:53:02.505Z,16.50
2017-05-14T22:55:31.428Z,16.40
2017-05-14T22:58:00.309Z,16.40
2017-05-14T23:00:29.185Z,16.40
2017-05-14T23:02:58.100Z,16.40
2017-05-14T23:05:27.013Z,16.40
2017-05-14T23:07:55.887Z,16.30
2017-05-14T23:10:24.760Z,16.30
2017-05-14T23:12:53.658Z,16.30
2017-05-14T23:15:22.529Z,16.30
2017-05-14T23:17:51.430Z,16.20
2017-05-14T23:20:20.310Z,16.20
2017-05-14T23:22:49.213Z,16.20
2017-05-14T23:25:18.214Z,16.20
2017-05-14T23:27:47.090Z,16.20
2017-05-14T23:30:15.959Z,16.20
2017-05-14T23:32:44.888Z,16.20
2017-05-14T23:35:13.759Z,16.10
2017-05-14T23:37:42.635Z,16.10
2017-05-14T23:40:11.842Z,16.10
2017-05-14T23:42:40.739Z,16.10
2017-05-14T23:45:09.604Z,16.10
2017-05-14T23:47:38.516Z,16.20
2017-05-14T23:50:07.393Z,16.10
2017-05-14T23:52:36.276Z,16.10
2017-05-14T23:55:05.929Z,16.10
2017-05-14T23:57:34.814Z,16.10
